createdAt,value
2022-09-16T00:00:11.874Z,11.10
2022-09-16T00:02:40.281Z,11.10
2022-09-16T00:05:08.923Z,11.00
2022-09-16T00:07:40.761Z,11.00
2022-09-16T00:10:10.382Z,11.00
2022-09-16T00:12:38.380Z,11.00
2022-09-16T00:15:06.892Z,11.00
2022-09-16T00:17:35.275Z,11.00
2022-09-16T00:20:03.361Z,11.00
2022-09-16T00:22:31.576Z,11.00
2022-09-16T00:24:59.544Z,11.00
2022-09-16T00:27:28.913Z,11.00
2022-09-16T00:29:56.833Z,11.00
2022-09-16T00:32:25.116Z,11.00
2022-09-16T00:34:53.124Z,11.00
2022-09-16T00:37:21.515Z,11.00
2022-09-16T00:39:50.204Z,11.00
2022-09-16T00:42:18.896Z,11.00
2022-09-16T00:44:55.466Z,11.00
2022-09-16T00:47:25.437Z,11.00
2022-09-16T00:49:55.788Z,11.00
2022-09-16T00:52:23.959Z,11.00
2022-09-16T00:54:51.873Z,11.00
2022-09-16T00:57:19.845Z,11.00
2022-09-16T00:59:49.948Z,11.00
2022-09-16T01:02:20.298Z,11.00
2022-09-16T01:04:51.218Z,11.00
2022-09-16T01:07:22.243Z,11.00
2022-09-16T01:09:50.110Z,11.10
2022-09-16T01:12:18.124Z,11.10
2022-09-16T01:14:55.051Z,11.10
2022-09-16T01:17:29.170Z,11.10
2022-09-16T01:20:09.534Z,11.10
2022-09-16T01:22:46.001Z,11.10
2022-09-16T01:25:20.129Z,11.10
2022-09-16T01:28:02.029Z,11.10
2022-09-16T01:30:53.947Z,11.10
2022-09-16T01:33:31.630Z,11.10
2022-09-16T01:36:04.668Z,11.00
2022-09-16T01:38:40.882Z,11.00
2022-09-16T01:41:10.996Z,11.00
2022-09-16T01:43:44.502Z,11.00
2022-09-16T01:46:17.717Z,11.00
2022-09-16T01:48:53.746Z,10.90
2022-09-16T01:51:24.710Z,10.90
2022-09-16T01:53:54.975Z,10.90
2022-09-16T01:56:25.241Z,10.90
2022-09-16T01:58:57.335Z,10.90
2022-09-16T02:01:28.165Z,10.90
2022-09-16T02:04:00.204Z,10.90
2022-09-16T02:06:29.593Z,10.90
2022-09-16T02:08:59.399Z,11.00
2022-09-16T02:11:27.381Z,10.90
2022-09-16T02:13:56.291Z,11.60
2022-09-16T02:16:27.793Z,10.90
2022-09-16T02:18:59.207Z,10.90
2022-09-16T02:21:28.396Z,10.90
2022-09-16T02:23:59.005Z,11.00
2022-09-16T02:26:30.241Z,11.00
2022-09-16T02:28:59.249Z,11.00
2022-09-16T02:31:29.313Z,10.90
2022-09-16T02:34:01.314Z,11.00
2022-09-16T02:36:30.056Z,11.00
2022-09-16T02:39:01.057Z,11.00
2022-09-16T02:41:29.071Z,11.00
2022-09-16T02:43:57.401Z,11.00
2022-09-16T02:46:27.904Z,10.90
2022-09-16T02:49:00.337Z,10.90
2022-09-16T02:51:32.193Z,11.00
2022-09-16T02:54:02.409Z,11.00
2022-09-16T02:56:31.591Z,10.90
2022-09-16T02:59:00.067Z,10.90
2022-09-16T03:01:29.680Z,10.90
2022-09-16T03:03:59.081Z,10.90
2022-09-16T03:06:28.957Z,10.90
2022-09-16T03:08:59.124Z,10.90
2022-09-16T03:11:35.034Z,10.90
2022-09-16T03:14:11.142Z,10.90
2022-09-16T03:16:46.225Z,10.90
2022-09-16T03:19:20.593Z,10.90
2022-09-16T03:21:53.366Z,10.90
2022-09-16T03:24:28.293Z,10.90
2022-09-16T03:26:58.620Z,10.80
2022-09-16T03:29:28.632Z,10.80
2022-09-16T03:31:59.195Z,10.80
2022-09-16T03:34:31.183Z,10.80
2022-09-16T03:37:00.400Z,10.80
2022-09-16T03:39:28.292Z,10.80
2022-09-16T03:41:56.559Z,10.70
2022-09-16T03:44:32.062Z,10.70
2022-09-16T03:47:00.125Z,10.70
2022-09-16T03:49:30.215Z,10.70
2022-09-16T03:51:58.172Z,10.70
2022-09-16T03:54:26.447Z,10.70
2022-09-16T03:56:54.309Z,10.70
2022-09-16T03:59:22.296Z,10.70
2022-09-16T04:01:50.443Z,10.70
2022-09-16T04:04:18.451Z,10.70
2022-09-16T04:06:47.736Z,10.70
2022-09-16T04:09:16.811Z,10.60
2022-09-16T04:11:44.736Z,10.60
2022-09-16T04:14:12.780Z,10.60
2022-09-16T04:16:44.841Z,10.60
2022-09-16T04:19:14.056Z,10.60
2022-09-16T04:21:42.327Z,10.50
2022-09-16T04:24:13.309Z,10.50
2022-09-16T04:26:41.537Z,10.50
2022-09-16T04:29:09.529Z,10.40
2022-09-16T04:31:37.657Z,10.40
2022-09-16T04:34:05.986Z,10.40
2022-09-16T04:36:33.921Z,10.40
2022-09-16T04:39:01.781Z,10.30
2022-09-16T04:41:30.990Z,10.30
2022-09-16T04:44:00.337Z,10.30
2022-09-16T04:46:30.104Z,10.30
2022-09-16T04:48:58.495Z,10.30
2022-09-16T04:51:28.164Z,10.30
2022-09-16T04:53:56.437Z,10.20
2022-09-16T04:56:25.240Z,10.20
2022-09-16T04:58:55.943Z,10.20
2022-09-16T05:01:25.269Z,10.20
2022-09-16T05:03:53.965Z,10.10
2022-09-16T05:06:22.948Z,10.10
2022-09-16T05:08:51.120Z,10.10
2022-09-16T05:11:19.968Z,10.00
2022-09-16T05:13:47.894Z,10.10
2022-09-16T05:16:17.772Z,10.10
2022-09-16T05:18:46.467Z,10.00
2022-09-16T05:21:16.184Z,10.10
2022-09-16T05:23:46.965Z,10.10
2022-09-16T05:26:16.323Z,10.10
2022-09-16T05:28:44.285Z,10.00
2022-09-16T05:31:12.912Z,10.00
2022-09-16T05:33:43.260Z,10.00
2022-09-16T05:36:12.916Z,10.10
2022-09-16T05:38:40.864Z,10.10
2022-09-16T05:41:08.860Z,10.10
2022-09-16T05:43:37.143Z,10.10
2022-09-16T05:46:05.696Z,10.10
2022-09-16T05:48:33.725Z,10.00
2022-09-16T05:51:06.790Z,10.10
2022-09-16T05:53:35.574Z,10.00
2022-09-16T05:56:04.705Z,10.10
2022-09-16T05:58:33.583Z,10.10
2022-09-16T06:01:01.935Z,10.10
2022-09-16T06:03:30.362Z,10.10
2022-09-16T06:06:03.081Z,10.10
2022-09-16T06:08:31.542Z,10.10
2022-09-16T06:11:01.273Z,10.20
2022-09-16T06:13:29.346Z,10.20
2022-09-16T06:15:57.544Z,10.20
2022-09-16T06:18:26.548Z,10.30
2022-09-16T06:20:54.522Z,10.30
2022-09-16T06:23:24.322Z,10.40
2022-09-16T06:26:00.021Z,10.40
2022-09-16T06:28:27.936Z,10.40
2022-09-16T06:31:02.411Z,10.50
2022-09-16T06:33:30.868Z,10.50
2022-09-16T06:35:58.830Z,10.50
2022-09-16T06:38:28.065Z,10.50
2022-09-16T06:40:58.846Z,10.50
2022-09-16T06:43:26.717Z,10.50
2022-09-16T06:45:57.418Z,10.60
2022-09-16T06:48:25.387Z,10.60
2022-09-16T06:50:58.597Z,10.70
2022-09-16T06:53:28.317Z,10.70
2022-09-16T06:55:56.197Z,10.70
2022-09-16T06:58:24.105Z,10.80
2022-09-16T07:00:52.082Z,10.90
2022-09-16T07:03:20.024Z,11.00
2022-09-16T07:06:06.796Z,11.00
2022-09-16T07:08:36.892Z,11.10
2022-09-16T07:11:05.393Z,11.10
2022-09-16T07:13:33.673Z,11.10
2022-09-16T07:16:12.932Z,11.10
2022-09-16T07:18:42.304Z,11.10
2022-09-16T07:21:11.383Z,11.10
2022-09-16T07:23:41.000Z,11.20
2022-09-16T07:26:09.986Z,11.20
2022-09-16T07:28:38.637Z,11.20
2022-09-16T07:31:07.628Z,11.20
2022-09-16T07:33:37.460Z,11.30
2022-09-16T07:36:06.192Z,11.30
2022-09-16T07:38:34.353Z,11.30
2022-09-16T07:41:06.838Z,11.40
2022-09-16T07:43:34.990Z,11.40
2022-09-16T07:46:02.948Z,11.50
2022-09-16T07:48:34.657Z,11.50
2022-09-16T07:51:03.921Z,11.60
2022-09-16T07:53:32.079Z,11.60
2022-09-16T07:56:02.446Z,11.60
2022-09-16T07:58:31.718Z,11.70
2022-09-16T08:01:04.275Z,11.80
2022-09-16T08:03:32.886Z,11.80
2022-09-16T08:06:01.430Z,11.90
2022-09-16T08:08:29.335Z,12.00
2022-09-16T08:10:58.044Z,12.00
2022-09-16T08:13:26.313Z,12.10
2022-09-16T08:15:55.898Z,12.10
2022-09-16T08:18:23.868Z,12.20
2022-09-16T08:20:51.748Z,12.20
2022-09-16T08:23:20.206Z,12.30
2022-09-16T08:25:48.223Z,12.30
2022-09-16T08:28:21.927Z,12.40
2022-09-16T08:30:52.719Z,12.50
2022-09-16T08:33:25.846Z,12.50
2022-09-16T08:36:04.642Z,12.60
2022-09-16T08:38:33.528Z,12.60
2022-09-16T08:41:03.955Z,12.60
2022-09-16T08:43:37.131Z,12.70
2022-09-16T08:46:10.197Z,12.80
2022-09-16T08:48:46.356Z,12.60
2022-09-16T08:51:16.723Z,12.90
2022-09-16T08:53:47.003Z,13.00
2022-09-16T08:56:15.836Z,13.00
2022-09-16T08:58:45.581Z,13.00
2022-09-16T09:01:17.998Z,13.10
2022-09-16T09:03:48.498Z,13.20
2022-09-16T09:06:24.816Z,13.20
2022-09-16T09:08:56.990Z,13.30
2022-09-16T09:11:28.026Z,13.40
2022-09-16T09:14:03.817Z,13.40
2022-09-16T09:16:37.608Z,13.50
2022-09-16T09:19:13.147Z,13.50
2022-09-16T09:21:44.363Z,13.50
2022-09-16T09:24:22.922Z,13.60
2022-09-16T09:26:51.517Z,13.60
2022-09-16T09:29:34.506Z,13.60
2022-09-16T09:32:08.070Z,13.60
2022-09-16T09:34:43.447Z,13.70
2022-09-16T09:37:19.305Z,13.80
2022-09-16T09:40:01.178Z,13.90
2022-09-16T09:42:30.409Z,14.00
2022-09-16T09:45:02.455Z,14.00
2022-09-16T09:47:34.123Z,14.00
2022-09-16T09:50:13.019Z,14.10
2022-09-16T09:52:44.392Z,14.10
2022-09-16T09:55:17.112Z,14.20
2022-09-16T09:57:50.617Z,14.30
2022-09-16T10:00:21.160Z,14.30
2022-09-16T10:02:50.219Z,14.40
2022-09-16T10:05:22.505Z,14.50
2022-09-16T10:07:52.050Z,14.50
2022-09-16T10:10:21.732Z,14.50
2022-09-16T10:12:49.683Z,14.30
2022-09-16T10:15:22.990Z,14.30
2022-09-16T10:17:51.612Z,14.20
2022-09-16T10:20:26.303Z,14.10
2022-09-16T10:22:56.883Z,13.90
2022-09-16T10:25:26.614Z,13.70
2022-09-16T10:27:58.377Z,13.50
2022-09-16T10:30:27.375Z,13.40
2022-09-16T10:32:56.577Z,13.40
2022-09-16T10:35:26.955Z,13.50
2022-09-16T10:37:57.193Z,13.50
2022-09-16T10:40:25.816Z,13.60
2022-09-16T10:42:54.970Z,13.60
2022-09-16T10:45:27.610Z,13.80
2022-09-16T10:47:59.970Z,13.80
2022-09-16T10:50:31.573Z,14.00
2022-09-16T10:52:59.484Z,14.10
2022-09-16T10:55:28.882Z,14.10
2022-09-16T10:58:07.754Z,14.20
2022-09-16T11:00:42.255Z,14.40
2022-09-16T11:03:31.602Z,14.50
2022-09-16T11:06:06.226Z,14.60
2022-09-16T11:08:39.720Z,14.60
2022-09-16T11:11:12.460Z,14.50
2022-09-16T11:13:45.750Z,14.40
2022-09-16T11:16:20.454Z,14.40
2022-09-16T11:18:54.969Z,14.30
2022-09-16T11:21:35.920Z,14.10
2022-09-16T11:24:14.907Z,14.10
2022-09-16T11:26:48.789Z,14.00
2022-09-16T11:29:40.149Z,14.00
2022-09-16T11:32:13.901Z,14.10
2022-09-16T11:34:49.321Z,14.10
2022-09-16T11:37:21.107Z,14.20
2022-09-16T11:39:58.451Z,14.40
2022-09-16T11:42:29.317Z,14.50
2022-09-16T11:45:01.067Z,14.50
2022-09-16T11:47:43.536Z,14.50
2022-09-16T11:50:23.440Z,14.50
2022-09-16T11:53:04.356Z,14.40
2022-09-16T11:55:39.700Z,14.30
2022-09-16T11:58:11.597Z,14.20
2022-09-16T12:00:40.037Z,14.20
2022-09-16T12:03:11.588Z,14.10
2022-09-16T12:05:42.023Z,14.20
2022-09-16T12:08:14.047Z,14.20
2022-09-16T12:10:44.772Z,14.30
2022-09-16T12:13:16.481Z,14.30
2022-09-16T12:15:46.788Z,14.40
2022-09-16T12:18:16.844Z,14.50
2022-09-16T12:20:46.788Z,14.60
2022-09-16T12:23:18.501Z,14.60
2022-09-16T12:25:48.011Z,14.80
2022-09-16T12:28:17.917Z,14.90
2022-09-16T12:30:47.255Z,14.90
2022-09-16T12:33:17.341Z,15.00
2022-09-16T12:35:50.520Z,15.00
2022-09-16T12:38:20.830Z,15.10
2022-09-16T12:40:53.968Z,15.10
2022-09-16T12:43:52.183Z,15.20
2022-09-16T12:46:29.964Z,15.30
2022-09-16T12:49:12.829Z,15.40
2022-09-16T12:51:56.665Z,15.70
2022-09-16T12:55:03.964Z,15.30
2022-09-16T12:57:34.664Z,15.20
2022-09-16T13:00:10.509Z,14.90
2022-09-16T13:02:39.704Z,14.70
2022-09-16T13:05:12.671Z,14.60
2022-09-16T13:07:41.333Z,14.50
2022-09-16T13:10:19.029Z,14.50
2022-09-16T13:12:54.523Z,14.50
2022-09-16T13:15:27.265Z,14.50
2022-09-16T13:17:55.614Z,14.60
2022-09-16T13:20:26.820Z,14.60
2022-09-16T13:23:01.484Z,14.60
2022-09-16T13:25:33.926Z,14.60
2022-09-16T13:28:02.791Z,14.60
2022-09-16T13:30:36.081Z,14.60
2022-09-16T13:33:27.988Z,14.60
2022-09-16T13:36:15.410Z,14.50
2022-09-16T13:38:44.323Z,14.50
2022-09-16T13:41:14.821Z,14.40
2022-09-16T13:43:53.683Z,14.40
2022-09-16T13:46:29.499Z,14.30
2022-09-16T13:48:59.817Z,14.30
2022-09-16T13:51:27.783Z,14.20
2022-09-16T13:54:04.648Z,14.20
2022-09-16T13:56:45.332Z,14.20
2022-09-16T13:59:30.624Z,14.20
2022-09-16T14:02:02.533Z,14.10
2022-09-16T14:04:41.100Z,14.10
2022-09-16T14:07:15.815Z,14.10
2022-09-16T14:09:51.520Z,14.10
2022-09-16T14:12:25.564Z,14.10
2022-09-16T14:14:53.539Z,14.00
2022-09-16T14:17:22.737Z,14.00
2022-09-16T14:19:53.066Z,13.90
2022-09-16T14:22:23.155Z,13.90
2022-09-16T14:25:00.614Z,13.90
2022-09-16T14:27:39.262Z,13.90
2022-09-16T14:30:08.528Z,13.80
2022-09-16T14:32:37.397Z,13.70
2022-09-16T14:35:09.924Z,13.60
2022-09-16T14:37:39.083Z,13.50
2022-09-16T14:40:11.281Z,13.50
2022-09-16T14:42:44.838Z,13.40
2022-09-16T14:45:16.423Z,13.30
2022-09-16T14:47:51.731Z,13.30
2022-09-16T14:50:22.138Z,13.20
2022-09-16T14:52:54.689Z,13.10
2022-09-16T14:55:23.785Z,13.10
2022-09-16T14:57:53.099Z,13.00
2022-09-16T15:00:21.213Z,13.00
2022-09-16T15:02:51.154Z,12.90
2022-09-16T15:05:22.570Z,12.80
2022-09-16T15:08:12.570Z,12.80
2022-09-16T15:10:54.961Z,12.80
2022-09-16T15:13:26.641Z,12.70
2022-09-16T15:15:56.120Z,12.70
2022-09-16T15:18:26.962Z,12.60
2022-09-16T15:21:00.567Z,12.60
2022-09-16T15:23:29.150Z,12.50
2022-09-16T15:25:58.477Z,12.50
2022-09-16T15:28:27.905Z,12.40
2022-09-16T15:30:58.270Z,12.40
2022-09-16T15:33:32.447Z,12.40
2022-09-16T15:36:02.719Z,12.40
2022-09-16T15:38:31.198Z,12.30
2022-09-16T15:41:03.981Z,12.30
2022-09-16T15:43:36.254Z,12.30
2022-09-16T15:46:06.587Z,12.30
2022-09-16T15:48:35.446Z,12.30
2022-09-16T15:51:06.250Z,12.30
2022-09-16T15:53:42.859Z,12.20
2022-09-16T15:56:19.845Z,12.20
2022-09-16T15:58:50.309Z,12.20
2022-09-16T16:01:20.782Z,12.20
2022-09-16T16:03:54.287Z,12.20
2022-09-16T16:06:22.889Z,12.20
2022-09-16T16:08:51.603Z,12.20
2022-09-16T16:11:20.263Z,12.20
2022-09-16T16:13:51.056Z,12.20
2022-09-16T16:16:19.432Z,12.20
2022-09-16T16:18:47.396Z,12.20
2022-09-16T16:21:16.305Z,12.20
2022-09-16T16:23:44.611Z,12.10
2022-09-16T16:26:12.647Z,12.10
2022-09-16T16:28:40.526Z,12.10
2022-09-16T16:31:10.936Z,12.10
2022-09-16T16:33:42.546Z,12.10
2022-09-16T16:36:12.205Z,12.10
2022-09-16T16:38:40.425Z,12.00
2022-09-16T16:41:09.101Z,12.00
2022-09-16T16:43:37.072Z,12.00
2022-09-16T16:46:05.423Z,12.00
2022-09-16T16:48:35.754Z,12.00
2022-09-16T16:51:05.988Z,11.90
2022-09-16T16:53:33.922Z,11.90
2022-09-16T16:56:05.703Z,11.80
2022-09-16T16:58:36.035Z,11.80
2022-09-16T17:01:10.047Z,11.70
2022-09-16T17:03:39.808Z,11.70
2022-09-16T17:06:07.911Z,11.60
2022-09-16T17:08:36.103Z,11.60
2022-09-16T17:11:08.384Z,11.60
2022-09-16T17:13:36.538Z,11.60
2022-09-16T17:16:04.569Z,11.60
2022-09-16T17:18:34.463Z,11.50
2022-09-16T17:21:04.832Z,11.50
2022-09-16T17:23:33.356Z,11.50
2022-09-16T17:26:01.811Z,11.50
2022-09-16T17:28:29.788Z,11.50
2022-09-16T17:30:57.786Z,11.40
2022-09-16T17:33:26.265Z,11.50
2022-09-16T17:36:00.558Z,11.40
2022-09-16T17:38:29.769Z,11.40
2022-09-16T17:41:01.596Z,11.50
2022-09-16T17:43:32.321Z,11.40
2022-09-16T17:46:00.783Z,11.40
2022-09-16T17:48:29.414Z,11.40
2022-09-16T17:50:57.669Z,11.40
2022-09-16T17:53:26.026Z,11.40
2022-09-16T17:56:02.135Z,11.40
2022-09-16T17:58:30.152Z,11.40
2022-09-16T18:01:04.117Z,11.40
2022-09-16T18:03:32.036Z,11.40
2022-09-16T18:06:03.712Z,11.40
2022-09-16T18:08:31.568Z,11.40
2022-09-16T18:11:00.793Z,11.50
2022-09-16T18:13:28.758Z,11.40
2022-09-16T18:15:57.188Z,11.40
2022-09-16T18:18:25.087Z,11.50
2022-09-16T18:20:53.944Z,11.40
2022-09-16T18:23:22.192Z,11.50
2022-09-16T18:25:50.111Z,11.40
2022-09-16T18:28:19.493Z,11.40
2022-09-16T18:30:47.426Z,11.40
2022-09-16T18:33:15.459Z,11.40
2022-09-16T18:35:43.347Z,11.40
2022-09-16T18:38:12.890Z,11.40
2022-09-16T18:40:40.761Z,11.50
2022-09-16T18:43:08.773Z,11.40
2022-09-16T18:45:38.084Z,11.40
2022-09-16T18:48:06.205Z,11.50
2022-09-16T18:50:34.240Z,11.50
2022-09-16T18:53:02.649Z,11.50
2022-09-16T18:55:31.109Z,11.50
2022-09-16T18:57:58.982Z,11.50
2022-09-16T19:00:26.852Z,11.50
2022-09-16T19:02:56.145Z,11.50
2022-09-16T19:05:24.033Z,11.50
2022-09-16T19:07:51.949Z,11.50
2022-09-16T19:10:19.942Z,11.50
2022-09-16T19:12:47.992Z,11.50
2022-09-16T19:15:15.921Z,11.50
2022-09-16T19:17:44.132Z,11.50
2022-09-16T19:20:13.638Z,11.50
2022-09-16T19:22:41.550Z,11.50
2022-09-16T19:25:09.543Z,11.60
2022-09-16T19:27:39.137Z,11.60
2022-09-16T19:30:07.682Z,11.60
2022-09-16T19:32:35.671Z,11.60
2022-09-16T19:35:03.764Z,11.60
2022-09-16T19:37:33.029Z,11.60
2022-09-16T19:40:01.024Z,11.60
2022-09-16T19:42:29.003Z,11.60
2022-09-16T19:44:56.879Z,11.60
2022-09-16T19:47:24.800Z,11.60
2022-09-16T19:49:52.665Z,11.60
2022-09-16T19:52:20.546Z,11.70
2022-09-16T19:54:50.647Z,11.70
2022-09-16T19:57:19.031Z,11.70
2022-09-16T19:59:47.029Z,11.70
2022-09-16T20:02:15.119Z,11.70
2022-09-16T20:04:43.136Z,11.70
2022-09-16T20:07:16.875Z,11.70
2022-09-16T20:09:46.362Z,11.70
2022-09-16T20:12:15.663Z,11.70
2022-09-16T20:14:43.723Z,11.70
2022-09-16T20:17:11.669Z,11.50
2022-09-16T20:19:39.760Z,11.70
2022-09-16T20:22:07.691Z,11.70
2022-09-16T20:24:35.577Z,11.70
2022-09-16T20:27:04.675Z,11.70
2022-09-16T20:29:33.996Z,11.80
2022-09-16T20:32:02.090Z,11.80
2022-09-16T20:34:30.136Z,11.80
2022-09-16T20:36:58.036Z,11.80
2022-09-16T20:39:26.022Z,11.80
2022-09-16T20:41:53.939Z,11.80
2022-09-16T20:44:21.854Z,11.80
2022-09-16T20:46:51.339Z,11.80
2022-09-16T20:49:19.903Z,11.80
2022-09-16T20:51:47.774Z,11.80
2022-09-16T20:54:16.486Z,11.80
2022-09-16T20:56:45.355Z,11.80
2022-09-16T20:59:14.032Z,11.80
2022-09-16T21:01:42.483Z,11.80
2022-09-16T21:04:13.655Z,11.80
2022-09-16T21:06:41.492Z,11.80
2022-09-16T21:09:10.661Z,11.80
2022-09-16T21:11:44.483Z,11.80
2022-09-16T21:14:16.104Z,11.80
2022-09-16T21:16:45.396Z,11.80
2022-09-16T21:19:15.372Z,11.90
2022-09-16T21:21:44.694Z,11.80
2022-09-16T21:24:13.159Z,11.80
2022-09-16T21:26:41.542Z,11.90
2022-09-16T21:29:11.116Z,11.90
2022-09-16T21:31:39.921Z,11.90
2022-09-16T21:34:08.535Z,11.90
2022-09-16T21:36:39.915Z,11.90
2022-09-16T21:39:08.164Z,11.90
2022-09-16T21:41:36.582Z,11.90
2022-09-16T21:44:05.227Z,11.80
2022-09-16T21:46:41.072Z,11.80
2022-09-16T21:49:14.382Z,11.70
2022-09-16T21:51:43.611Z,11.70
2022-09-16T21:54:11.602Z,11.70
2022-09-16T21:56:40.281Z,11.70
2022-09-16T21:59:08.622Z,11.70
2022-09-16T22:01:37.088Z,11.70
2022-09-16T22:04:06.322Z,11.60
2022-09-16T22:06:34.572Z,11.70
2022-09-16T22:09:06.929Z,11.60
2022-09-16T22:11:35.839Z,11.60
2022-09-16T22:14:04.420Z,11.60
2022-09-16T22:16:34.287Z,11.60
2022-09-16T22:19:02.924Z,11.60
2022-09-16T22:21:31.978Z,11.60
2022-09-16T22:24:00.799Z,11.60
2022-09-16T22:26:30.721Z,11.60
2022-09-16T22:28:58.990Z,11.60
2022-09-16T22:31:27.863Z,11.60
2022-09-16T22:33:56.319Z,11.60
2022-09-16T22:36:25.819Z,11.50
2022-09-16T22:38:54.396Z,11.50
2022-09-16T22:41:22.820Z,11.50
2022-09-16T22:43:52.852Z,11.50
2022-09-16T22:46:21.833Z,11.50
2022-09-16T22:48:50.127Z,11.50
2022-09-16T22:51:18.670Z,11.40
2022-09-16T22:53:46.926Z,11.50
2022-09-16T22:56:17.914Z,11.40
2022-09-16T22:58:46.074Z,11.50
2022-09-16T23:01:16.251Z,11.40
2022-09-16T23:03:44.935Z,11.50
2022-09-16T23:06:13.950Z,11.40
2022-09-16T23:08:43.133Z,11.50
2022-09-16T23:11:14.197Z,11.40
2022-09-16T23:13:42.476Z,11.40
2022-09-16T23:16:12.473Z,11.40
2022-09-16T23:18:42.143Z,11.50
2022-09-16T23:21:11.256Z,11.40
2022-09-16T23:23:40.037Z,11.40
2022-09-16T23:26:09.054Z,11.40
2022-09-16T23:28:37.330Z,11.40
2022-09-16T23:31:06.382Z,11.40
2022-09-16T23:33:34.319Z,11.40
2022-09-16T23:36:04.487Z,11.40
2022-09-16T23:38:32.866Z,11.40
2022-09-16T23:41:04.928Z,11.40
2022-09-16T23:43:33.000Z,11.40
2022-09-16T23:46:02.193Z,11.40
2022-09-16T23:48:30.824Z,11.30
2022-09-16T23:50:59.108Z,11.30
2022-09-16T23:53:28.824Z,11.30
2022-09-16T23:55:56.713Z,11.30
2022-09-16T23:58:24.848Z,11.30
